Time;durP1;ratioP1;P1;durP2;ratioP2;P2;SDS_P1;SDS_P2;PMS_P1;PMS_P2;Temp;Humidity;BMP_temperature;BMP_pressure;BME280_temperature;BME280_humidity;BME280_pressure;Samples;Min_cycle;Max_cycle;Signal;HPM_P1;HPM_P2
2021/08/09 00:01:10;;;;;;;3.92;2.17;;;;;;;16.99;59.24;99584.09;6037665;23;20470;-81
2021/08/09 00:03:36;;;;;;;3.33;1.90;;;;;;;16.97;59.46;99586.03;6039078;23;20031;-81
2021/08/09 00:06:23;;;;;;;3.58;1.73;;;;;;;16.91;60.29;99582.09;6039968;23;20027;-81
2021/08/09 00:08:50;;;;;;;3.08;1.75;;;;;;;16.95;59.50;99588.00;6039611;23;20031;-81
2021/08/09 00:11:26;;;;;;;4.45;2.00;;;;;;;16.90;60.30;99588.38;6040059;23;20094;-81
2021/08/09 00:13:53;;;;;;;4.22;2.25;;;;;;;16.93;59.68;99590.78;6039236;23;20102;-81
2021/08/09 00:16:28;;;;;;;4.45;2.17;;;;;;;16.89;60.57;99596.47;6039377;23;20102;-81
2021/08/09 00:18:55;;;;;;;4.93;1.83;;;;;;;16.90;59.64;99584.91;6040901;23;20034;-81
2021/08/09 00:21:33;;;;;;;3.45;1.88;;;;;;;16.86;60.94;99594.09;6041296;23;20392;-81
2021/08/09 00:24:00;;;;;;;5.03;2.00;;;;;;;16.88;59.83;99602.78;6039146;23;20062;-81
2021/08/09 00:26:34;;;;;;;4.55;2.13;;;;;;;16.84;60.81;99604.88;6039205;23;20098;-81
2021/08/09 00:29:03;;;;;;;5.03;2.00;;;;;;;16.85;59.83;99603.06;6039782;23;20384;-81
2021/08/09 00:31:31;;;;;;;3.90;1.90;;;;;;;16.83;60.37;99603.19;6039508;23;20471;-81
2021/08/09 00:33:58;;;;;;;5.10;2.10;;;;;;;16.82;60.27;99605.97;6039237;23;20027;-81
2021/08/09 00:36:32;;;;;;;3.72;2.20;;;;;;;16.78;61.15;99602.72;6039458;23;20505;-81
2021/08/09 00:38:59;;;;;;;6.60;2.20;;;;;;;16.78;60.60;99611.53;6040496;23;20067;-81
2021/08/09 00:41:30;;;;;;;2.95;2.10;;;;;;;16.74;61.18;99610.13;6039400;23;20054;-81
2021/08/09 00:43:56;;;;;;;4.28;2.10;;;;;;;16.76;60.48;99621.47;6039213;23;20395;-81
2021/08/09 00:46:24;;;;;;;4.82;2.00;;;;;;;16.74;60.99;99615.44;6039177;23;20402;-81
2021/08/09 00:48:51;;;;;;;5.28;2.10;;;;;;;16.75;60.69;99616.28;6039244;23;20030;-81
2021/08/09 00:51:19;;;;;;;2.28;1.90;;;;;;;16.73;60.80;99610.25;6038598;23;20103;-81
2021/08/09 00:53:46;;;;;;;4.72;2.05;;;;;;;16.73;60.75;99615.56;6039132;23;20412;-82
2021/08/09 00:56:13;;;;;;;6.03;2.13;;;;;;;16.72;60.67;99613.88;6038763;23;20106;-81
2021/08/09 00:58:44;;;;;;;6.03;2.13;;;;;;;16.68;61.27;99624.78;6039058;23;20134;-81
2021/08/09 01:01:11;;;;;;;9.18;2.63;;;;;;;16.69;60.86;99612.34;6039398;23;20102;-85
2021/08/09 01:03:38;;;;;;;4.25;2.28;;;;;;;16.67;60.93;99616.94;6038645;23;20023;-86
2021/08/09 01:06:06;;;;;;;7.40;2.22;;;;;;;16.66;60.89;99615.25;6039088;23;20050;-86
2021/08/09 01:09:21;;;;;;;3.05;1.83;;;;;;;16.60;61.96;99615.78;6039237;23;20027;-86
2021/08/09 01:12:11;;;;;;;5.50;2.15;;;;;;;16.58;61.75;99618.56;6039183;23;20389;-86
2021/08/09 01:18:05;;;;;;;5.40;2.05;;;;;;;16.59;61.27;99614.09;6040185;23;20063;-86
2021/08/09 01:20:47;;;;;;;4.45;2.28;;;;;;;16.54;62.12;99609.16;6038874;23;20101;-86
2021/08/09 01:23:40;;;;;;;4.80;2.05;;;;;;;16.56;61.17;99614.34;6038535;23;20066;-86
2021/08/09 01:26:27;;;;;;;5.57;2.53;;;;;;;16.51;62.01;99612.94;6038616;23;20090;-86
2021/08/09 01:28:56;;;;;;;4.13;2.20;;;;;;;16.52;61.23;99614.59;6038556;23;20023;-86
2021/08/09 01:31:28;;;;;;;4.85;2.30;;;;;;;16.51;61.62;99615.59;6038475;23;20035;-85
2021/08/09 01:33:57;;;;;;;5.15;2.03;;;;;;;16.49;61.73;99616.69;6038195;23;20103;-86
2021/08/09 01:36:28;;;;;;;4.03;2.13;;;;;;;16.49;61.92;99614.84;6038225;23;20097;-86
2021/08/09 01:38:56;;;;;;;5.30;2.40;;;;;;;16.49;61.53;99619.34;6038205;23;20062;-86
2021/08/09 01:41:25;;;;;;;4.25;1.80;;;;;;;16.47;61.93;99616.81;6038307;23;20093;-86
2021/08/09 01:43:53;;;;;;;5.63;2.25;;;;;;;16.47;61.70;99616.81;6038108;23;20078;-85
2021/08/09 01:46:23;;;;;;;5.97;1.95;;;;;;;16.44;62.03;99619.72;6038384;23;20131;-81
2021/08/09 01:48:51;;;;;;;4.53;2.50;;;;;;;16.44;61.75;99617.06;6038466;23;20102;-81
2021/08/09 01:51:17;;;;;;;6.78;2.30;;;;;;;16.45;61.78;99623.22;6038532;23;20131;-81
2021/08/09 01:53:44;;;;;;;5.28;2.63;;;;;;;16.44;61.85;99621.56;6038216;23;20054;-81
2021/08/09 01:56:11;;;;;;;3.60;1.85;;;;;;;16.44;61.92;99617.06;6038270;23;20019;-81
2021/08/09 01:58:38;;;;;;;4.72;2.05;;;;;;;16.44;61.83;99626.88;6038250;23;20029;-86
2021/08/09 02:01:06;;;;;;;3.83;2.10;;;;;;;16.44;62.00;99629.53;6038315;23;20406;-86
2021/08/09 02:03:33;;;;;;;7.40;2.33;;;;;;;16.43;62.12;99628.66;6038035;23;20110;-86
2021/08/09 02:06:00;;;;;;;4.78;2.20;;;;;;;16.42;62.01;99627.00;6038073;23;20090;-86
2021/08/09 02:08:28;;;;;;;6.65;2.30;;;;;;;16.42;62.16;99629.66;6038164;23;20084;-81
2021/08/09 02:11:05;;;;;;;5.25;2.33;;;;;;;16.39;62.75;99624.59;6038391;23;20087;-81
2021/08/09 02:14:01;;;;;;;5.22;2.40;;;;;;;16.39;62.68;99625.44;6038576;23;20073;-82
2021/08/09 02:16:38;;;;;;;6.28;2.22;;;;;;;16.37;62.91;99629.19;6038282;23;20024;-81
2021/08/09 02:22:32;;;;;;;5.00;2.37;;;;;;;16.36;62.20;99635.47;6039794;23;20066;-81
2021/08/09 02:25:05;;;;;;;5.30;2.55;;;;;;;16.32;62.69;99629.56;6038201;23;20061;-81
2021/08/09 02:27:44;;;;;;;7.38;2.72;;;;;;;16.29;62.89;99629.81;6038318;23;20412;-81
2021/08/09 02:30:13;;;;;;;6.53;2.58;;;;;;;16.30;62.33;99628.00;6038716;23;20482;-81
2021/08/09 02:32:40;;;;;;;4.05;2.45;;;;;;;16.28;62.38;99622.81;6038235;23;20058;-81
2021/08/09 02:35:09;;;;;;;7.03;2.53;;;;;;;16.26;62.46;99635.41;6038202;23;20510;-81
2021/08/09 02:37:37;;;;;;;4.13;2.30;;;;;;;16.24;62.70;99626.72;6038347;23;20106;-81
2021/08/09 02:40:12;;;;;;;4.18;2.28;;;;;;;16.20;63.38;99634.09;6037666;23;20028;-81
2021/08/09 02:42:40;;;;;;;4.05;1.98;;;;;;;16.20;62.65;99628.78;6037027;23;20101;-81
2021/08/09 02:45:10;;;;;;;3.10;2.15;;;;;;;16.19;63.37;99642.19;6039394;23;20090;-81
2021/08/09 02:47:39;;;;;;;6.70;2.30;;;;;;;16.20;62.85;99635.91;6038270;23;20106;-81
2021/08/09 02:50:09;;;;;;;6.47;2.50;;;;;;;16.19;63.07;99642.19;6039188;23;20031;-81
2021/08/09 02:52:38;;;;;;;5.00;2.47;;;;;;;16.17;63.07;99634.34;6039751;23;20110;-81
2021/08/09 02:55:08;;;;;;;6.70;2.88;;;;;;;16.15;63.13;99638.94;6037999;23;20111;-81
2021/08/09 02:57:37;;;;;;;6.38;2.28;;;;;;;16.15;63.06;99638.94;6037866;23;20130;-81
2021/08/09 03:00:05;;;;;;;4.68;2.38;;;;;;;16.15;63.02;99646.91;6038047;23;20055;-81
2021/08/09 03:02:36;;;;;;;6.45;2.40;;;;;;;16.12;63.70;99644.50;6039630;23;20102;-81
2021/08/09 03:05:05;;;;;;;7.18;2.63;;;;;;;16.12;62.99;99636.53;6038070;23;20106;-81
2021/08/09 03:07:35;;;;;;;4.00;2.25;;;;;;;16.11;63.35;99634.88;6038488;23;20498;-83
2021/08/09 03:10:10;;;;;;;7.63;2.88;;;;;;;16.07;63.88;99636.09;6037772;23;20034;-86
2021/08/09 03:12:39;;;;;;;5.10;2.45;;;;;;;16.07;63.10;99647.53;6037921;23;20031;-86
2021/08/09 03:15:06;;;;;;;5.20;2.58;;;;;;;16.04;63.23;99631.88;6037440;23;20066;-86
2021/08/09 03:17:33;;;;;;;3.92;2.40;;;;;;;16.04;63.26;99637.19;6037809;23;20079;-86
2021/08/09 03:20:02;;;;;;;4.68;2.70;;;;;;;16.00;63.67;99633.91;6038032;23;20510;-86
2021/08/09 03:22:29;;;;;;;6.45;3.00;;;;;;;16.01;63.40;99640.91;6037801;23;20493;-86
2021/08/09 03:25:01;;;;;;;6.85;3.03;;;;;;;15.98;64.23;99640.31;6037936;23;20061;-86
2021/08/09 03:27:27;;;;;;;5.45;2.72;;;;;;;15.98;63.49;99645.63;6037698;23;20058;-86
2021/08/09 03:29:56;;;;;;;6.40;2.95;;;;;;;15.97;63.96;99647.47;6037897;23;20467;-86
2021/08/09 03:32:23;;;;;;;5.55;2.58;;;;;;;15.97;63.74;99643.94;6038070;23;20059;-86
2021/08/09 03:34:57;;;;;;;7.18;2.65;;;;;;;15.93;64.74;99639.81;6037069;23;20114;-86
2021/08/09 03:37:23;;;;;;;7.38;2.70;;;;;;;15.97;63.70;99641.31;6037788;23;20098;-86
2021/08/09 03:39:58;;;;;;;4.88;2.90;;;;;;;15.92;64.74;99646.94;6039173;23;20379;-86
2021/08/09 03:42:25;;;;;;;4.13;2.65;;;;;;;15.95;63.80;99646.72;6037719;23;20445;-86
2021/08/09 03:44:52;;;;;;;5.47;2.95;;;;;;;15.94;63.89;99642.41;6038686;23;20058;-85
2021/08/09 03:47:19;;;;;;;3.90;2.60;;;;;;;15.94;64.04;99647.72;6037190;23;20094;-85
2021/08/09 03:49:47;;;;;;;7.25;2.88;;;;;;;15.94;64.19;99647.72;6037293;23;20055;-85
2021/08/09 03:52:14;;;;;;;5.28;2.50;;;;;;;15.95;64.06;99648.53;6037349;23;20054;-86
2021/08/09 03:54:40;;;;;;;5.28;3.08;;;;;;;15.95;63.98;99644.06;6036868;23;20038;-86
2021/08/09 03:57:13;;;;;;;8.60;2.95;;;;;;;15.95;64.75;99640.56;6037082;23;20470;-81
2021/08/09 03:59:40;;;;;;;4.85;2.92;;;;;;;15.98;64.04;99643.84;6037684;23;20058;-81
2021/08/09 04:02:09;;;;;;;5.00;2.85;;;;;;;15.99;64.17;99647.31;6037897;23;20517;-81
2021/08/09 04:04:37;;;;;;;5.22;2.97;;;;;;;15.98;64.24;99643.84;6037509;23;20411;-86
2021/08/09 04:07:04;;;;;;;5.85;2.83;;;;;;;15.99;64.20;99647.31;6037498;23;20471;-86
2021/08/09 04:09:31;;;;;;;7.43;3.63;;;;;;;15.99;64.30;99648.16;6037632;23;20066;-82
2021/08/09 04:11:57;;;;;;;4.82;2.78;;;;;;;16.01;64.33;99648.03;6037790;23;20400;-81
2021/08/09 04:14:28;;;;;;;7.30;2.75;;;;;;;15.98;64.90;99662.41;6038932;23;20071;-82
2021/08/09 04:16:55;;;;;;;6.70;3.08;;;;;;;15.99;64.28;99658.78;6038853;23;20024;-81
2021/08/09 04:19:22;;;;;;;6.63;3.05;;;;;;;16.00;64.28;99662.28;6037328;23;20081;-86
2021/08/09 04:21:48;;;;;;;6.55;2.95;;;;;;;16.00;64.49;99667.59;6037129;23;20069;-86
2021/08/09 04:24:15;;;;;;;9.35;3.30;;;;;;;15.99;64.45;99661.44;6037306;23;20490;-86
2021/08/09 04:26:43;;;;;;;5.63;3.08;;;;;;;15.98;64.87;99654.44;6037496;23;20471;-86
2021/08/09 04:29:09;;;;;;;6.15;2.58;;;;;;;15.98;64.68;99656.25;6037267;23;20102;-81
2021/08/09 04:31:48;;;;;;;7.30;3.03;;;;;;;15.96;65.55;99667.00;6037514;23;20055;-81
2021/08/09 04:34:15;;;;;;;4.50;3.00;;;;;;;16.01;64.77;99658.66;6037339;23;20067;-81
2021/08/09 04:36:51;;;;;;;6.97;3.25;;;;;;;15.99;65.73;99664.09;6039238;23;20078;-81
2021/08/09 04:39:18;;;;;;;5.07;2.97;;;;;;;16.03;64.63;99667.34;6037335;23;20058;-81
2021/08/09 04:41:45;;;;;;;6.80;2.65;;;;;;;16.04;64.91;99658.41;6037401;23;20063;-82
2021/08/09 04:44:30;;;;;;;8.55;3.70;;;;;;;16.07;64.81;99657.31;6037753;23;20027;-81
2021/08/09 04:46:57;;;;;;;10.77;3.58;;;;;;;16.07;64.73;99659.97;6037885;23;20095;-81
2021/08/09 04:49:33;;;;;;;7.15;3.17;;;;;;;16.06;65.35;99660.94;6037855;23;20031;-81
2021/08/09 04:52:00;;;;;;;6.13;3.30;;;;;;;16.09;64.77;99661.53;6040624;23;20035;-81
2021/08/09 04:54:27;;;;;;;8.38;3.55;;;;;;;16.10;64.77;99659.72;6040895;23;20151;-81
2021/08/09 04:56:56;;;;;;;5.65;3.28;;;;;;;16.10;65.09;99670.31;6043500;23;20027;-81
2021/08/09 04:59:25;;;;;;;7.25;3.08;;;;;;;16.11;65.18;99664.91;6039061;23;20091;-81
2021/08/09 05:01:52;;;;;;;5.63;2.92;;;;;;;16.14;64.90;99666.44;6039465;23;20024;-81
2021/08/09 05:04:19;;;;;;;4.45;2.97;;;;;;;16.17;64.81;99668.00;6038709;23;20122;-81
2021/08/09 05:06:47;;;;;;;10.20;2.92;;;;;;;16.18;64.79;99673.19;6038822;23;20102;-81
2021/08/09 05:09:13;;;;;;;5.18;2.90;;;;;;;16.19;64.76;99664.28;6039289;23;20125;-82
2021/08/09 05:11:40;;;;;;;7.38;2.92;;;;;;;16.22;64.70;99664.00;6038849;23;20106;-81
2021/08/09 05:14:07;;;;;;;4.70;2.83;;;;;;;16.23;64.65;99668.34;6040464;23;20435;-80
2021/08/09 05:16:38;;;;;;;8.23;3.13;;;;;;;16.25;64.83;99676.19;6039318;23;20046;-81
2021/08/09 05:19:06;;;;;;;3.60;2.42;;;;;;;16.27;64.59;99677.75;6039267;23;20054;-81
2021/08/09 05:21:35;;;;;;;5.47;2.67;;;;;;;16.28;64.81;99675.94;6039215;23;20094;-82
2021/08/09 05:24:04;;;;;;;8.48;2.92;;;;;;;16.31;64.52;99672.19;6039147;23;20459;-82
2021/08/09 05:26:33;;;;;;;5.63;2.78;;;;;;;16.32;64.63;99680.03;6038673;23;20065;-82
2021/08/09 05:29:00;;;;;;;6.88;2.75;;;;;;;16.34;64.34;99677.25;6038834;23;20027;-81
2021/08/09 05:31:28;;;;;;;5.60;2.42;;;;;;;16.34;64.45;99683.41;6038687;23;20097;-82
2021/08/09 05:33:57;;;;;;;6.30;2.42;;;;;;;16.37;64.36;99684.97;6038483;23;20056;-81
2021/08/09 05:36:25;;;;;;;5.72;2.20;;;;;;;16.38;64.37;99692.78;6038441;23;20023;-86
2021/08/09 05:38:52;;;;;;;5.88;2.67;;;;;;;16.41;64.30;99687.25;6038688;23;20098;-86
2021/08/09 05:41:39;;;;;;;5.88;2.35;;;;;;;16.40;64.83;99690.88;6038494;23;20094;-86
2021/08/09 05:44:05;;;;;;;6.13;2.85;;;;;;;16.50;64.36;99696.28;6038362;23;20102;-86
2021/08/09 05:46:49;;;;;;;4.85;2.35;;;;;;;16.51;64.83;99699.75;6038487;23;20020;-86
2021/08/09 05:49:16;;;;;;;8.60;2.72;;;;;;;16.60;64.40;99711.44;6038954;23;20355;-86
2021/08/09 05:51:44;;;;;;;6.07;2.70;;;;;;;16.63;64.36;99706.72;6038489;23;20101;-86
2021/08/09 05:54:11;;;;;;;5.57;2.72;;;;;;;16.67;64.13;99709.94;6039582;23;20102;-86
2021/08/09 05:56:47;;;;;;;5.55;2.58;;;;;;;16.69;64.54;99716.00;6039598;23;20118;-86
2021/08/09 05:59:16;;;;;;;5.57;2.83;;;;;;;16.75;64.20;99718.13;6038402;23;20398;-86
2021/08/09 06:01:42;;;;;;;5.60;2.58;;;;;;;16.78;63.84;99711.69;6038312;23;20024;-88
2021/08/09 06:04:13;;;;;;;6.57;2.60;;;;;;;16.79;64.10;99716.88;6039449;23;20038;-88
2021/08/09 06:06:42;;;;;;;9.57;2.85;;;;;;;16.83;63.88;99716.66;6040013;23;20066;-87
2021/08/09 06:09:09;;;;;;;4.72;2.38;;;;;;;16.85;63.72;99725.34;6038661;23;20058;-87
2021/08/09 06:11:40;;;;;;;7.07;2.70;;;;;;;16.84;64.03;99734.28;6038350;23;20059;-86
2021/08/09 06:14:07;;;;;;;6.07;2.67;;;;;;;16.86;63.69;99729.69;6038664;23;20054;-86
2021/08/09 06:16:34;;;;;;;5.05;2.65;;;;;;;16.87;63.68;99736.69;6038490;23;20028;-86
2021/08/09 06:19:01;;;;;;;5.72;2.95;;;;;;;16.87;63.71;99739.34;6038816;23;20034;-86
2021/08/09 06:21:29;;;;;;;5.22;2.85;;;;;;;16.86;63.81;99738.47;6038701;23;20106;-86
2021/08/09 06:23:55;;;;;;;8.85;3.10;;;;;;;16.87;63.85;99739.34;6040528;23;20098;-86
2021/08/09 06:26:22;;;;;;;4.40;2.55;;;;;;;16.88;63.93;99741.03;6040290;23;20066;-86
2021/08/09 06:28:56;;;;;;;10.50;3.13;;;;;;;16.86;64.62;99740.31;6040802;23;20098;-86
2021/08/09 06:31:22;;;;;;;6.63;2.72;;;;;;;16.92;64.11;99745.09;6038804;23;20098;-86
2021/08/09 06:34:06;;;;;;;7.38;2.83;;;;;;;16.91;64.69;99744.28;6038612;23;20027;-86
2021/08/09 06:36:33;;;;;;;;;;;;;;;16.98;64.45;99744.59;6039229;23;20059;-86
2021/08/09 06:39:00;;;;;;;4.18;2.40;;;;;;;17.06;63.59;99739.53;6038463;23;19965;-86
2021/08/09 06:41:35;;;;;;;7.38;3.10;;;;;;;17.08;64.40;99739.38;6038792;23;20061;-86
2021/08/09 06:44:02;;;;;;;7.10;3.10;;;;;;;17.15;64.14;99737.88;6038325;23;20062;-86
2021/08/09 06:46:44;;;;;;;5.50;2.60;;;;;;;17.19;64.36;99733.13;6038712;23;20051;-86
2021/08/09 06:49:11;;;;;;;5.88;2.25;;;;;;;17.31;64.17;99741.91;6038725;23;20094;-86
2021/08/09 06:51:38;;;;;;;6.13;2.20;;;;;;;17.41;64.50;99739.25;6038297;23;20102;-87
2021/08/09 06:54:05;;;;;;;8.48;2.72;;;;;;;17.54;64.47;99741.72;6038094;23;20098;-87
2021/08/09 06:56:31;;;;;;;6.65;2.53;;;;;;;17.65;64.07;99741.59;6038317;23;20098;-86
2021/08/09 06:58:59;;;;;;;9.20;3.03;;;;;;;17.79;63.99;99742.25;6038127;23;20106;-86
2021/08/09 07:01:27;;;;;;;9.55;2.53;;;;;;;17.91;63.69;99738.47;6038299;23;20051;-85
2021/08/09 07:03:56;;;;;;;9.45;2.53;;;;;;;18.03;63.12;99746.38;6037816;23;20027;-86
2021/08/09 07:06:24;;;;;;;9.55;2.88;;;;;;;18.12;62.97;99739.41;6038375;23;20114;-86
2021/08/09 07:08:52;;;;;;;7.35;2.35;;;;;;;18.19;62.52;99741.38;6037720;23;20130;-80
2021/08/09 07:11:18;;;;;;;6.13;2.45;;;;;;;18.27;62.44;99745.19;6037443;23;20078;-86
2021/08/09 07:13:46;;;;;;;7.60;2.60;;;;;;;18.32;62.29;99738.44;6037273;23;20118;-87
2021/08/09 07:16:13;;;;;;;11.18;2.60;;;;;;;18.35;61.68;99740.84;6037764;23;20070;-80
2021/08/09 07:18:40;;;;;;;6.93;2.28;;;;;;;18.39;61.81;99741.41;6038853;23;20027;-81
2021/08/09 07:21:10;;;;;;;8.57;2.83;;;;;;;18.41;61.62;99746.59;6037720;23;20062;-80
2021/08/09 07:23:38;;;;;;;7.50;2.33;;;;;;;18.46;61.56;99744.34;6037923;23;20395;-80
2021/08/09 07:26:04;;;;;;;7.45;2.13;;;;;;;18.48;61.49;99740.59;6037866;23;20118;-80
2021/08/09 07:28:33;;;;;;;6.60;2.28;;;;;;;18.49;61.62;99747.59;6037493;23;20106;-79
2021/08/09 07:31:00;;;;;;;7.93;2.40;;;;;;;18.54;61.52;99749.00;6040093;23;20035;-79
2021/08/09 07:33:28;;;;;;;7.05;2.33;;;;;;;18.57;61.65;99752.22;6038678;23;20354;-79
2021/08/09 07:35:55;;;;;;;7.63;2.65;;;;;;;18.60;61.55;99749.28;6039753;23;20413;-79
2021/08/09 07:38:22;;;;;;;4.32;2.05;;;;;;;18.65;61.46;99756.03;6038311;23;20403;-79
2021/08/09 07:40:48;;;;;;;10.02;2.28;;;;;;;18.68;61.59;99759.25;6038536;23;20110;-86
2021/08/09 07:43:17;;;;;;;7.90;2.63;;;;;;;18.71;61.56;99758.97;6037854;23;20055;-86
2021/08/09 07:45:44;;;;;;;9.10;2.85;;;;;;;18.78;61.44;99769.91;6037740;23;20466;-86
2021/08/09 07:48:14;;;;;;;7.43;2.40;;;;;;;18.83;60.89;99767.66;6039084;23;20024;-86
2021/08/09 07:50:42;;;;;;;6.32;2.40;;;;;;;18.87;60.90;99766.41;6039848;23;20391;-79
2021/08/09 07:53:09;;;;;;;7.65;2.80;;;;;;;18.91;60.73;99771.44;6038310;23;20080;-79
2021/08/09 07:55:36;;;;;;;7.43;2.35;;;;;;;18.95;60.71;99773.69;6038684;23;20396;-81
2021/08/09 07:58:09;;;;;;;13.65;2.80;;;;;;;18.96;60.93;99780.72;6041814;23;20451;-81
2021/08/09 08:00:37;;;;;;;7.05;3.05;;;;;;;19.01;60.85;99774.94;6043231;23;20106;-81
2021/08/09 08:03:06;;;;;;;7.43;2.60;;;;;;;19.07;60.86;99777.09;6043677;23;20485;-81
2021/08/09 08:05:36;;;;;;;7.55;2.78;;;;;;;19.08;60.07;99781.44;6043358;23;20367;-81
2021/08/09 08:08:03;;;;;;;10.32;2.95;;;;;;;19.13;60.20;99775.66;6043216;23;20053;-81
2021/08/09 08:10:30;;;;;;;7.55;2.60;;;;;;;19.17;60.38;99776.22;6043525;23;20399;-81
2021/08/09 08:12:58;;;;;;;6.28;2.40;;;;;;;19.20;60.58;99778.59;6043085;23;20027;-80
2021/08/09 08:15:25;;;;;;;12.98;3.05;;;;;;;19.24;60.27;99777.31;6043345;23;20036;-80
2021/08/09 08:18:02;;;;;;;6.10;2.35;;;;;;;19.26;60.50;99775.38;6043622;23;20027;-81
2021/08/09 08:20:29;;;;;;;6.13;2.33;;;;;;;19.36;60.62;99776.16;6042931;23;20101;-80
2021/08/09 08:22:57;;;;;;;6.22;2.60;;;;;;;19.45;60.73;99773.63;6037243;23;20101;-81
2021/08/09 08:25:24;;;;;;;10.98;2.15;;;;;;;19.53;60.47;99777.25;6042731;23;20026;-81
2021/08/09 08:27:55;;;;;;;5.70;2.28;;;;;;;19.60;60.27;99782.84;6043430;23;20093;-81
2021/08/09 08:30:22;;;;;;;8.43;2.30;;;;;;;19.70;59.88;99773.97;6044618;23;20034;-81
2021/08/09 08:32:58;;;;;;;5.03;2.08;;;;;;;19.75;59.65;99769.03;6046225;23;20442;-81
2021/08/09 08:35:25;;;;;;;9.05;2.47;;;;;;;19.80;59.67;99782.75;6069132;23;20109;-81
2021/08/09 08:37:57;;;;;;;6.65;2.75;;;;;;;19.82;59.52;99767.44;6069486;23;20102;-81
2021/08/09 08:40:24;;;;;;;5.97;2.30;;;;;;;19.88;59.68;99784.69;6044864;23;20406;-81
2021/08/09 08:42:53;;;;;;;7.20;2.10;;;;;;;19.89;59.19;99781.88;6044267;23;20050;-80
2021/08/09 08:45:21;;;;;;;6.95;2.00;;;;;;;19.90;59.25;99782.72;6043931;23;20058;-80
2021/08/09 08:47:49;;;;;;;5.47;2.30;;;;;;;19.88;58.65;99785.53;6044658;23;20027;-80
2021/08/09 08:50:19;;;;;;;4.57;2.33;;;;;;;19.88;58.83;99790.03;6044218;23;20027;-81
2021/08/09 08:52:51;;;;;;;9.20;2.10;;;;;;;19.85;58.95;99791.16;6043956;23;20059;-80
2021/08/09 08:55:19;;;;;;;5.32;2.15;;;;;;;19.85;58.86;99785.84;6043455;23;20102;-80
2021/08/09 08:57:56;;;;;;;4.32;2.08;;;;;;;19.79;58.83;99787.28;6044280;23;20473;-80
2021/08/09 09:00:22;;;;;;;5.78;2.67;;;;;;;19.83;58.86;99790.50;6038881;23;20078;-80
2021/08/09 09:02:49;;;;;;;4.45;2.25;;;;;;;19.80;59.06;99788.09;6039020;23;20098;-80
2021/08/09 09:05:21;;;;;;;4.38;2.15;;;;;;;19.77;58.66;99804.41;6038724;23;20079;-80
2021/08/09 09:07:49;;;;;;;3.10;1.83;;;;;;;19.78;59.25;99798.13;6039176;23;20562;-81
2021/08/09 09:10:24;;;;;;;6.65;2.20;;;;;;;19.78;59.26;99793.59;6039405;23;20038;-81
2021/08/09 09:13:07;;;;;;;8.68;2.70;;;;;;;19.74;59.16;99794.88;6030038;23;20102;-80
2021/08/09 09:16:02;;;;;;;7.35;2.10;;;;;;;19.77;59.12;99799.06;6038919;23;20507;-80
2021/08/09 09:18:45;;;;;;;5.25;1.88;;;;;;;19.79;59.56;99805.97;6039139;23;20455;-80
2021/08/09 09:21:35;;;;;;;4.55;1.85;;;;;;;19.84;59.46;99797.50;6039344;23;20089;-80
2021/08/09 09:24:18;;;;;;;5.70;2.45;;;;;;;19.86;59.47;99794.69;6025439;23;20078;-81
2021/08/09 09:26:51;;;;;;;3.40;2.05;;;;;;;19.95;59.77;99796.47;6038770;23;20131;-81
2021/08/09 09:29:19;;;;;;;4.85;1.83;;;;;;;20.03;59.84;99801.97;6037839;23;20107;-80
2021/08/09 09:31:48;;;;;;;4.88;2.22;;;;;;;20.10;59.66;99798.69;6038928;23;20114;-81
2021/08/09 09:34:17;;;;;;;7.05;2.50;;;;;;;20.17;59.54;99797.97;6038567;23;20111;-81
2021/08/09 09:36:55;;;;;;;5.80;2.03;;;;;;;20.22;59.32;99804.69;6038770;23;20098;-81
2021/08/09 09:39:32;;;;;;;4.65;2.25;;;;;;;20.27;58.37;99813.09;6038552;23;20102;-81
2021/08/09 09:42:03;;;;;;;3.53;2.00;;;;;;;20.30;58.64;99804.78;6038218;23;20455;-81
2021/08/09 09:44:34;;;;;;;4.32;2.22;;;;;;;20.32;58.73;99805.47;6038423;23;20065;-81
2021/08/09 09:47:24;;;;;;;4.07;2.30;;;;;;;20.28;58.68;99801.41;6038758;23;20073;-81
2021/08/09 09:49:56;;;;;;;4.82;2.50;;;;;;;20.33;58.67;99801.78;6017861;23;20467;-81
2021/08/09 09:52:47;;;;;;;5.45;2.33;;;;;;;20.27;58.56;99808.59;6038611;23;20062;-81
2021/08/09 09:55:15;;;;;;;6.75;2.65;;;;;;;20.31;58.56;99811.81;6038646;23;20463;-81
2021/08/09 09:57:48;;;;;;;5.03;2.13;;;;;;;20.27;58.99;99815.75;6038675;23;20463;-81
2021/08/09 10:00:17;;;;;;;5.50;2.22;;;;;;;20.27;58.91;99815.75;6038560;23;20412;-81
2021/08/09 10:02:48;;;;;;;3.70;2.20;;;;;;;20.26;58.82;99809.56;6038753;23;20383;-81
2021/08/09 10:05:16;;;;;;;5.13;2.70;;;;;;;20.29;59.34;99813.78;6038463;23;20081;-81
2021/08/09 10:07:53;;;;;;;4.75;2.13;;;;;;;20.29;59.07;99819.13;6038316;23;20023;-81
2021/08/09 10:10:23;;;;;;;4.47;2.42;;;;;;;20.36;59.15;99816.69;6038512;23;20027;-80
2021/08/09 10:12:51;;;;;;;5.35;2.50;;;;;;;20.38;58.72;99815.56;6038743;23;20698;-80
2021/08/09 10:15:20;;;;;;;5.78;2.17;;;;;;;20.43;59.00;99815.09;6038652;23;20035;-81
2021/08/09 10:17:49;;;;;;;3.90;2.10;;;;;;;20.47;59.28;99811.13;6038066;23;20059;-81
2021/08/09 10:20:23;;;;;;;5.75;2.50;;;;;;;20.51;59.30;99809.84;6038328;23;20069;-81
2021/08/09 10:22:58;;;;;;;4.40;2.22;;;;;;;20.60;59.84;99805.44;6038679;23;20475;-81
2021/08/09 10:26:00;;;;;;;3.65;2.30;;;;;;;20.71;59.33;99815.06;6038027;23;20110;-81
2021/08/09 10:28:51;;;;;;;6.30;2.30;;;;;;;20.83;58.73;99813.00;5925055;24;20100;-81
2021/08/09 10:31:29;;;;;;;4.07;2.10;;;;;;;20.98;58.85;99820.50;6020257;23;20066;-81
2021/08/09 10:33:58;;;;;;;3.95;2.10;;;;;;;21.11;58.72;99817.44;6038054;23;20038;-81
2021/08/09 10:36:26;;;;;;;4.63;2.63;;;;;;;21.20;58.09;99814.66;6038461;23;20070;-81
2021/08/09 10:38:55;;;;;;;3.45;2.25;;;;;;;21.27;57.77;99820.22;6038265;23;20411;-81
2021/08/09 10:41:33;;;;;;;5.88;2.70;;;;;;;21.31;57.77;99815.41;6038245;23;20094;-81
2021/08/09 10:44:09;;;;;;;5.90;2.35;;;;;;;21.39;57.54;99811.94;6038028;23;20027;-81
2021/08/09 10:46:41;;;;;;;7.40;2.38;;;;;;;21.50;57.67;99808.16;6037962;23;20102;-88
2021/08/09 10:49:10;;;;;;;5.65;2.10;;;;;;;21.60;57.86;99814.25;6037446;23;20035;-87
2021/08/09 10:51:52;;;;;;;5.63;2.83;;;;;;;21.69;58.30;99828.53;6038293;23;20023;-79
2021/08/09 10:54:28;;;;;;;5.82;2.40;;;;;;;21.86;57.29;99822.31;6038502;23;20362;-79
2021/08/09 10:56:56;;;;;;;4.70;2.13;;;;;;;22.08;57.72;99816.53;6038488;23;20439;-79
2021/08/09 10:59:44;;;;;;;5.82;2.28;;;;;;;22.27;55.68;99818.09;6038176;23;20062;-79
2021/08/09 11:02:30;;;;;;;6.05;2.63;;;;;;;22.54;55.16;99818.00;6039045;23;20047;-79
2021/08/09 11:05:12;;;;;;;7.15;2.60;;;;;;;22.89;57.71;99816.91;6038237;23;20095;-80
2021/08/09 11:08:04;;;;;;;7.05;2.55;;;;;;;23.29;56.13;99810.88;6038439;23;20062;-79
2021/08/09 11:11:06;;;;;;;8.05;2.67;;;;;;;23.71;55.29;99814.34;6038318;23;20098;-79
2021/08/09 11:13:36;;;;;;;5.32;2.60;;;;;;;24.08;53.28;99818.22;6038278;23;20034;-79
2021/08/09 11:16:05;;;;;;;5.30;2.28;;;;;;;24.36;53.76;99818.81;6039859;23;20027;-79
2021/08/09 11:18:36;;;;;;;4.50;2.33;;;;;;;24.66;54.52;99806.31;6037807;23;20094;-80
2021/08/09 11:21:11;;;;;;;5.25;2.25;;;;;;;24.97;53.07;99808.13;6037642;23;20063;-79
2021/08/09 11:23:47;;;;;;;5.60;2.17;;;;;;;25.26;51.81;99807.56;6037424;23;20094;-79
2021/08/09 11:26:19;;;;;;;8.40;2.20;;;;;;;25.51;51.04;99802.75;6037609;23;20106;-80
2021/08/09 11:29:01;;;;;;;5.80;2.47;;;;;;;25.79;50.80;99790.53;6038063;23;20065;-80
2021/08/09 11:31:28;;;;;;;4.07;1.77;;;;;;;26.18;51.99;99799.28;6038010;23;20062;-80
2021/08/09 11:34:06;;;;;;;8.40;2.20;;;;;;;26.52;50.16;99800.53;6038032;23;20027;-80
2021/08/09 11:36:33;;;;;;;6.57;2.40;;;;;;;26.87;49.20;99799.84;6037358;23;20054;-80
2021/08/09 11:39:01;;;;;;;5.05;2.08;;;;;;;27.04;47.55;99798.56;6037757;23;20031;-79
2021/08/09 11:41:29;;;;;;;5.18;2.00;;;;;;;27.10;46.42;99807.72;6037574;23;20062;-80
2021/08/09 11:44:10;;;;;;;2.85;1.50;;;;;;;26.97;45.49;99797.66;6037205;23;20062;-88
2021/08/09 11:46:45;;;;;;;5.72;2.33;;;;;;;26.71;45.82;99800.91;6037293;23;20043;-88
2021/08/09 11:49:13;;;;;;;2.75;1.70;;;;;;;26.47;46.36;99800.28;6037378;23;20030;-82
2021/08/09 11:51:40;;;;;;;4.30;1.70;;;;;;;26.19;46.37;99803.66;6036927;23;20024;-81
2021/08/09 11:54:09;;;;;;;4.63;1.90;;;;;;;25.87;46.15;99807.44;6037052;23;20055;-81
2021/08/09 11:56:39;;;;;;;4.95;2.10;;;;;;;25.57;46.60;99807.44;6037655;23;20031;-81
2021/08/09 11:59:13;;;;;;;2.88;1.80;;;;;;;25.26;46.78;99805.69;6041832;23;20396;-88